sensor_id;sensor_type;location;lat;lon;timestamp;pressure;altitude;pressure_sealevel;temperature;humidity
17230;BME280;8731;50.364;8.958;2023-04-08T00:01:03;100532.50;;;4.66;92.98
17230;BME280;8731;50.364;8.958;2023-04-08T00:05:26;100528.53;;;4.68;93.08
17230;BME280;8731;50.364;8.958;2023-04-08T00:09:50;100532.91;;;4.28;93.93
17230;BME280;8731;50.364;8.958;2023-04-08T00:14:13;100540.13;;;4.39;94.92
17230;BME280;8731;50.364;8.958;2023-04-08T00:18:35;100545.75;;;4.10;95.99
17230;BME280;8731;50.364;8.958;2023-04-08T00:22:58;100544.06;;;4.30;95.54
17230;BME280;8731;50.364;8.958;2023-04-08T00:27:23;100546.94;;;3.99;97.82
17230;BME280;8731;50.364;8.958;2023-04-08T00:31:45;100533.84;;;4.43;96.18
17230;BME280;8731;50.364;8.958;2023-04-08T00:36:08;100548.84;;;4.14;98.06
17230;BME280;8731;50.364;8.958;2023-04-08T00:40:31;100549.41;;;3.92;98.03
17230;BME280;8731;50.364;8.958;2023-04-08T00:44:57;100539.22;;;4.31;97.05
17230;BME280;8731;50.364;8.958;2023-04-08T00:49:20;100547.31;;;4.29;96.45
17230;BME280;8731;50.364;8.958;2023-04-08T00:53:42;100548.97;;;4.43;95.72
17230;BME280;8731;50.364;8.958;2023-04-08T00:58:07;100558.38;;;4.17;98.71
17230;BME280;8731;50.364;8.958;2023-04-08T01:02:37;100558.16;;;4.42;98.15
17230;BME280;8731;50.364;8.958;2023-04-08T01:07:12;100558.66;;;4.32;97.04
17230;BME280;8731;50.364;8.958;2023-04-08T01:11:42;100565.91;;;4.10;99.59
17230;BME280;8731;50.364;8.958;2023-04-08T01:16:09;100555.59;;;4.35;98.33
17230;BME280;8731;50.364;8.958;2023-04-08T01:20:35;100556.50;;;4.36;98.39
17230;BME280;8731;50.364;8.958;2023-04-08T01:25:04;100558.56;;;4.52;96.85
17230;BME280;8731;50.364;8.958;2023-04-08T01:29:34;100557.31;;;4.56;95.64
17230;BME280;8731;50.364;8.958;2023-04-08T01:34:00;100554.09;;;4.57;95.46
17230;BME280;8731;50.364;8.958;2023-04-08T01:38:24;100562.03;;;4.60;95.33
17230;BME280;8731;50.364;8.958;2023-04-08T01:42:49;100558.59;;;4.59;94.82
17230;BME280;8731;50.364;8.958;2023-04-08T01:47:16;100561.84;;;4.58;95.19
17230;BME280;8731;50.364;8.958;2023-04-08T01:51:42;100567.78;;;4.59;95.08
17230;BME280;8731;50.364;8.958;2023-04-08T01:56:11;100556.25;;;4.61;95.40
17230;BME280;8731;50.364;8.958;2023-04-08T02:00:38;100559.69;;;4.61;95.03
17230;BME280;8731;50.364;8.958;2023-04-08T02:05:05;100557.31;;;4.56;94.56
17230;BME280;8731;50.364;8.958;2023-04-08T02:09:29;100555.69;;;4.22;95.94
17230;BME280;8731;50.364;8.958;2023-04-08T02:13:51;100562.66;;;4.45;96.67
17230;BME280;8731;50.364;8.958;2023-04-08T02:18:16;100562.31;;;4.49;95.62
17230;BME280;8731;50.364;8.958;2023-04-08T02:22:52;100569.56;;;4.53;95.48
17230;BME280;8731;50.364;8.958;2023-04-08T02:27:23;100567.69;;;4.45;95.62
17230;BME280;8731;50.364;8.958;2023-04-08T02:31:50;100572.22;;;4.47;94.78
17230;BME280;8731;50.364;8.958;2023-04-08T02:36:14;100577.97;;;4.46;95.38
17230;BME280;8731;50.364;8.958;2023-04-08T02:40:39;100585.44;;;4.59;95.09
17230;BME280;8731;50.364;8.958;2023-04-08T02:45:02;100583.59;;;4.51;94.69
17230;BME280;8731;50.364;8.958;2023-04-08T02:49:25;100576.25;;;4.59;94.70
17230;BME280;8731;50.364;8.958;2023-04-08T02:53:48;100580.88;;;4.49;95.65
17230;BME280;8731;50.364;8.958;2023-04-08T02:58:12;100587.94;;;4.59;96.02
17230;BME280;8731;50.364;8.958;2023-04-08T03:02:34;100583.06;;;4.53;96.05
17230;BME280;8731;50.364;8.958;2023-04-08T03:06:57;100582.91;;;4.59;96.72
17230;BME280;8731;50.364;8.958;2023-04-08T03:11:20;100589.75;;;4.60;94.95
17230;BME280;8731;50.364;8.958;2023-04-08T03:15:44;100587.09;;;4.31;98.20
17230;BME280;8731;50.364;8.958;2023-04-08T03:20:07;100587.13;;;4.39;98.59
17230;BME280;8731;50.364;8.958;2023-04-08T03:24:30;100596.16;;;4.44;98.24
17230;BME280;8731;50.364;8.958;2023-04-08T03:28:53;100591.03;;;4.29;99.37
17230;BME280;8731;50.364;8.958;2023-04-08T03:33:17;100589.31;;;4.43;99.05
17230;BME280;8731;50.364;8.958;2023-04-08T03:37:40;100590.59;;;4.19;98.31
17230;BME280;8731;50.364;8.958;2023-04-08T03:42:03;100595.72;;;4.26;97.51
17230;BME280;8731;50.364;8.958;2023-04-08T03:46:25;100596.09;;;4.29;97.33
17230;BME280;8731;50.364;8.958;2023-04-08T03:50:50;100600.53;;;3.98;100.00
17230;BME280;8731;50.364;8.958;2023-04-08T03:55:12;100599.59;;;4.17;100.00
17230;BME280;8731;50.364;8.958;2023-04-08T03:59:35;100598.41;;;4.28;98.66
17230;BME280;8731;50.364;8.958;2023-04-08T04:03:58;100608.63;;;4.22;97.97
17230;BME280;8731;50.364;8.958;2023-04-08T04:08:23;100604.34;;;4.01;97.08
17230;BME280;8731;50.364;8.958;2023-04-08T04:12:45;100604.41;;;3.82;99.40
17230;BME280;8731;50.364;8.958;2023-04-08T04:17:09;100608.00;;;3.84;99.21
17230;BME280;8731;50.364;8.958;2023-04-08T04:21:32;100608.72;;;3.63;99.62
17230;BME280;8731;50.364;8.958;2023-04-08T04:25:56;100610.72;;;3.85;96.98
17230;BME280;8731;50.364;8.958;2023-04-08T04:30:37;100618.03;;;3.57;97.34
17230;BME280;8731;50.364;8.958;2023-04-08T04:35:25;100619.44;;;3.75;97.12
17230;BME280;8731;50.364;8.958;2023-04-08T04:39:48;100621.66;;;3.79;96.33
17230;BME280;8731;50.364;8.958;2023-04-08T04:44:12;100626.41;;;3.50;96.81
17230;BME280;8731;50.364;8.958;2023-04-08T04:48:35;100632.53;;;3.52;97.65
17230;BME280;8731;50.364;8.958;2023-04-08T04:52:57;100617.28;;;3.78;96.25
17230;BME280;8731;50.364;8.958;2023-04-08T04:57:20;100630.63;;;3.57;97.04
17230;BME280;8731;50.364;8.958;2023-04-08T05:01:44;100627.28;;;3.31;100.00
17230;BME280;8731;50.364;8.958;2023-04-08T05:06:07;100631.59;;;3.64;99.85
17230;BME280;8731;50.364;8.958;2023-04-08T05:10:30;100628.34;;;3.46;99.22
17230;BME280;8731;50.364;8.958;2023-04-08T05:14:53;100629.88;;;3.38;98.49
17230;BME280;8731;50.364;8.958;2023-04-08T05:19:17;100646.22;;;3.34;99.50
17230;BME280;8731;50.364;8.958;2023-04-08T05:23:40;100642.16;;;3.42;99.80
17230;BME280;8731;50.364;8.958;2023-04-08T05:28:02;100644.16;;;3.45;99.18
17230;BME280;8731;50.364;8.958;2023-04-08T05:32:26;100652.09;;;3.67;98.96
17230;BME280;8731;50.364;8.958;2023-04-08T05:36:51;100646.53;;;3.50;98.48
17230;BME280;8731;50.364;8.958;2023-04-08T05:41:13;100655.31;;;3.47;99.79
17230;BME280;8731;50.364;8.958;2023-04-08T05:45:37;100657.50;;;3.51;99.72
17230;BME280;8731;50.364;8.958;2023-04-08T05:50:00;100654.66;;;3.55;100.00
17230;BME280;8731;50.364;8.958;2023-04-08T05:54:24;100657.81;;;3.79;97.97
17230;BME280;8731;50.364;8.958;2023-04-08T05:58:46;100662.19;;;3.87;98.51
17230;BME280;8731;50.364;8.958;2023-04-08T06:03:09;100669.22;;;3.90;97.82
17230;BME280;8731;50.364;8.958;2023-04-08T06:07:32;100669.16;;;4.03;98.93
17230;BME280;8731;50.364;8.958;2023-04-08T06:11:56;100669.72;;;4.07;98.58
17230;BME280;8731;50.364;8.958;2023-04-08T06:16:18;100685.28;;;4.17;97.81
17230;BME280;8731;50.364;8.958;2023-04-08T06:20:41;100686.09;;;4.30;97.08
17230;BME280;8731;50.364;8.958;2023-04-08T06:25:04;100688.69;;;4.45;95.72
17230;BME280;8731;50.364;8.958;2023-04-08T06:29:28;100687.03;;;4.38;95.95
17230;BME280;8731;50.364;8.958;2023-04-08T06:33:52;100691.94;;;4.44;96.35
17230;BME280;8731;50.364;8.958;2023-04-08T06:38:15;100702.03;;;4.44;96.83
17230;BME280;8731;50.364;8.958;2023-04-08T06:42:38;100700.47;;;4.51;97.51
17230;BME280;8731;50.364;8.958;2023-04-08T06:47:36;100704.81;;;4.52;99.07
17230;BME280;8731;50.364;8.958;2023-04-08T06:51:58;100708.06;;;4.58;99.55
17230;BME280;8731;50.364;8.958;2023-04-08T06:56:21;100715.63;;;4.58;98.20
17230;BME280;8731;50.364;8.958;2023-04-08T07:00:45;100712.09;;;4.44;99.98
17230;BME280;8731;50.364;8.958;2023-04-08T07:05:10;100722.25;;;4.51;100.00
17230;BME280;8731;50.364;8.958;2023-04-08T07:09:32;100720.34;;;4.62;100.00
17230;BME280;8731;50.364;8.958;2023-04-08T07:13:55;100718.84;;;4.84;100.00
17230;BME280;8731;50.364;8.958;2023-04-08T07:18:18;100733.31;;;4.92;99.30
17230;BME280;8731;50.364;8.958;2023-04-08T07:22:42;100722.94;;;5.04;99.59
17230;BME280;8731;50.364;8.958;2023-04-08T07:27:05;100731.44;;;5.11;100.00
17230;BME280;8731;50.364;8.958;2023-04-08T07:31:28;100724.13;;;5.27;100.00
17230;BME280;8731;50.364;8.958;2023-04-08T07:35:51;100726.88;;;5.43;100.00
17230;BME280;8731;50.364;8.958;2023-04-08T07:40:15;100736.06;;;5.42;100.00
17230;BME280;8731;50.364;8.958;2023-04-08T07:44:38;100736.47;;;5.45;100.00
17230;BME280;8731;50.364;8.958;2023-04-08T07:49:00;100742.97;;;5.50;100.00
17230;BME280;8731;50.364;8.958;2023-04-08T07:53:23;100743.53;;;5.62;100.00
17230;BME280;8731;50.364;8.958;2023-04-08T07:57:48;100748.44;;;5.75;100.00
17230;BME280;8731;50.364;8.958;2023-04-08T08:02:10;100746.47;;;5.86;100.00
17230;BME280;8731;50.364;8.958;2023-04-08T08:06:33;100747.09;;;5.98;100.00
17230;BME280;8731;50.364;8.958;2023-04-08T08:10:56;100753.59;;;6.03;100.00
17230;BME280;8731;50.364;8.958;2023-04-08T08:15:20;100749.78;;;6.14;100.00
17230;BME280;8731;50.364;8.958;2023-04-08T08:19:42;100763.72;;;6.18;100.00
17230;BME280;8731;50.364;8.958;2023-04-08T08:24:06;100760.66;;;6.41;100.00
17230;BME280;8731;50.364;8.958;2023-04-08T08:28:29;100757.19;;;6.62;99.12
17230;BME280;8731;50.364;8.958;2023-04-08T08:32:55;100761.16;;;6.60;99.79
17230;BME280;8731;50.364;8.958;2023-04-08T08:37:20;100768.25;;;6.63;99.66
17230;BME280;8731;50.364;8.958;2023-04-08T08:41:42;100767.84;;;6.88;98.83
17230;BME280;8731;50.364;8.958;2023-04-08T08:46:09;100764.00;;;7.06;97.63
17230;BME280;8731;50.364;8.958;2023-04-08T08:50:33;100766.53;;;7.13;96.95
17230;BME280;8731;50.364;8.958;2023-04-08T08:54:57;100766.47;;;7.27;96.72
17230;BME280;8731;50.364;8.958;2023-04-08T08:59:20;100772.72;;;7.45;95.77
17230;BME280;8731;50.364;8.958;2023-04-08T09:03:42;100776.28;;;7.61;93.74
17230;BME280;8731;50.364;8.958;2023-04-08T09:08:22;100771.69;;;7.73;93.14
17230;BME280;8731;50.364;8.958;2023-04-08T09:12:53;100782.56;;;8.02;92.15
17230;BME280;8731;50.364;8.958;2023-04-08T09:17:31;100777.59;;;8.18;90.53
17230;BME280;8731;50.364;8.958;2023-04-08T09:22:06;100777.34;;;8.53;90.00
17230;BME280;8731;50.364;8.958;2023-04-08T09:26:31;100785.31;;;8.56;88.21
17230;BME280;8731;50.364;8.958;2023-04-08T09:30:56;100780.81;;;8.70;86.93
17230;BME280;8731;50.364;8.958;2023-04-08T09:35:19;100784.34;;;9.17;85.52
17230;BME280;8731;50.364;8.958;2023-04-08T09:39:42;100784.84;;;9.38;84.64
17230;BME280;8731;50.364;8.958;2023-04-08T09:44:08;100789.44;;;9.49;83.65
17230;BME280;8731;50.364;8.958;2023-04-08T09:48:35;100792.72;;;9.48;82.44
17230;BME280;8731;50.364;8.958;2023-04-08T09:53:09;100790.56;;;9.75;80.12
17230;BME280;8731;50.364;8.958;2023-04-08T09:57:40;100789.88;;;10.25;80.00
17230;BME280;8731;50.364;8.958;2023-04-08T10:02:08;100794.63;;;10.47;79.74
17230;BME280;8731;50.364;8.958;2023-04-08T10:06:35;100793.75;;;10.06;78.71
17230;BME280;8731;50.364;8.958;2023-04-08T10:11:00;100780.91;;;9.89;78.41
17230;BME280;8731;50.364;8.958;2023-04-08T10:15:27;100782.25;;;10.25;78.82
17230;BME280;8731;50.364;8.958;2023-04-08T10:19:52;100787.41;;;10.18;77.91
17230;BME280;8731;50.364;8.958;2023-04-08T10:24:15;100783.56;;;10.46;77.56
17230;BME280;8731;50.364;8.958;2023-04-08T10:28:43;100783.75;;;10.32;78.27
17230;BME280;8731;50.364;8.958;2023-04-08T10:33:09;100790.66;;;10.33;77.79
17230;BME280;8731;50.364;8.958;2023-04-08T10:37:35;100792.00;;;10.62;77.99
17230;BME280;8731;50.364;8.958;2023-04-08T10:42:00;100787.34;;;10.25;77.25
17230;BME280;8731;50.364;8.958;2023-04-08T10:46:26;100776.41;;;11.01;77.75
17230;BME280;8731;50.364;8.958;2023-04-08T10:50:52;100775.66;;;10.93;77.56
17230;BME280;8731;50.364;8.958;2023-04-08T10:55:21;100774.44;;;10.98;78.16
17230;BME280;8731;50.364;8.958;2023-04-08T10:59:44;100780.19;;;11.13;79.02
17230;BME280;8731;50.364;8.958;2023-04-08T11:04:12;100777.69;;;11.39;79.58
17230;BME280;8731;50.364;8.958;2023-04-08T11:08:35;100783.31;;;11.11;78.37
17230;BME280;8731;50.364;8.958;2023-04-08T11:13:00;100778.72;;;11.76;79.32
17230;BME280;8731;50.364;8.958;2023-04-08T11:17:23;100776.31;;;12.12;76.40
17230;BME280;8731;50.364;8.958;2023-04-08T11:21:46;100767.00;;;12.12;75.83
17230;BME280;8731;50.364;8.958;2023-04-08T11:26:09;100767.88;;;12.94;73.70
17230;BME280;8731;50.364;8.958;2023-04-08T11:30:34;100761.84;;;13.02;73.74
17230;BME280;8731;50.364;8.958;2023-04-08T11:34:58;100750.66;;;13.10;71.65
17230;BME280;8731;50.364;8.958;2023-04-08T11:39:22;100758.13;;;13.92;71.38
17230;BME280;8731;50.364;8.958;2023-04-08T11:43:54;100763.28;;;13.36;68.59
17230;BME280;8731;50.364;8.958;2023-04-08T11:48:18;100750.97;;;14.56;68.25
17230;BME280;8731;50.364;8.958;2023-04-08T11:52:45;100753.34;;;14.73;67.61
17230;BME280;8731;50.364;8.958;2023-04-08T11:57:08;100754.44;;;14.47;66.42
17230;BME280;8731;50.364;8.958;2023-04-08T12:01:31;100747.09;;;13.83;65.02
17230;BME280;8731;50.364;8.958;2023-04-08T12:05:55;100747.91;;;14.50;64.90
17230;BME280;8731;50.364;8.958;2023-04-08T12:10:19;100755.19;;;14.46;64.12
17230;BME280;8731;50.364;8.958;2023-04-08T12:14:42;100764.81;;;14.58;64.68
17230;BME280;8731;50.364;8.958;2023-04-08T12:19:05;100765.63;;;14.67;63.38
17230;BME280;8731;50.364;8.958;2023-04-08T12:23:29;100760.59;;;14.30;65.51
17230;BME280;8731;50.364;8.958;2023-04-08T12:27:52;100755.97;;;14.45;65.21
17230;BME280;8731;50.364;8.958;2023-04-08T12:32:15;100754.31;;;14.65;66.58
17230;BME280;8731;50.364;8.958;2023-04-08T12:36:39;100756.72;;;13.96;65.84
17230;BME280;8731;50.364;8.958;2023-04-08T12:41:03;100754.50;;;13.80;65.27
17230;BME280;8731;50.364;8.958;2023-04-08T12:45:26;100750.66;;;13.56;65.51
17230;BME280;8731;50.364;8.958;2023-04-08T12:49:49;100753.44;;;14.36;66.09
17230;BME280;8731;50.364;8.958;2023-04-08T12:54:11;100743.75;;;14.13;63.03
17230;BME280;8731;50.364;8.958;2023-04-08T12:58:35;100726.56;;;14.41;64.80
17230;BME280;8731;50.364;8.958;2023-04-08T13:02:58;100730.19;;;14.43;64.46
17230;BME280;8731;50.364;8.958;2023-04-08T13:07:21;100732.28;;;14.47;65.02
17230;BME280;8731;50.364;8.958;2023-04-08T13:11:44;100730.53;;;14.37;64.62
17230;BME280;8731;50.364;8.958;2023-04-08T13:16:12;100726.38;;;14.48;65.18
17230;BME280;8731;50.364;8.958;2023-04-08T13:20:35;100725.59;;;14.49;65.36
17230;BME280;8731;50.364;8.958;2023-04-08T13:24:58;100725.00;;;14.33;65.07
17230;BME280;8731;50.364;8.958;2023-04-08T13:29:21;100717.47;;;14.34;64.58
17230;BME280;8731;50.364;8.958;2023-04-08T13:33:45;100719.50;;;14.88;64.96
17230;BME280;8731;50.364;8.958;2023-04-08T13:38:09;100718.34;;;14.74;64.28
17230;BME280;8731;50.364;8.958;2023-04-08T13:42:32;100725.22;;;14.55;63.29
17230;BME280;8731;50.364;8.958;2023-04-08T13:46:55;100728.06;;;14.88;63.93
17230;BME280;8731;50.364;8.958;2023-04-08T13:51:18;100723.03;;;14.49;65.07
17230;BME280;8731;50.364;8.958;2023-04-08T13:55:41;100720.25;;;14.87;64.28
17230;BME280;8731;50.364;8.958;2023-04-08T14:00:05;100718.22;;;15.23;64.30
17230;BME280;8731;50.364;8.958;2023-04-08T14:04:32;100711.28;;;14.82;62.98
17230;BME280;8731;50.364;8.958;2023-04-08T14:08:56;100721.94;;;15.17;64.60
17230;BME280;8731;50.364;8.958;2023-04-08T14:13:18;100716.41;;;15.12;64.41
17230;BME280;8731;50.364;8.958;2023-04-08T14:17:41;100722.81;;;14.77;63.86
17230;BME280;8731;50.364;8.958;2023-04-08T14:22:03;100725.91;;;14.72;64.73
17230;BME280;8731;50.364;8.958;2023-04-08T14:26:28;100724.50;;;14.37;63.99
17230;BME280;8731;50.364;8.958;2023-04-08T14:30:52;100726.41;;;14.89;65.17
17230;BME280;8731;50.364;8.958;2023-04-08T14:35:15;100717.84;;;14.98;64.59
17230;BME280;8731;50.364;8.958;2023-04-08T14:39:38;100721.03;;;14.86;64.29
17230;BME280;8731;50.364;8.958;2023-04-08T14:44:01;100723.72;;;14.38;65.85
17230;BME280;8731;50.364;8.958;2023-04-08T14:48:24;100725.22;;;14.65;65.73
17230;BME280;8731;50.364;8.958;2023-04-08T14:52:49;100728.34;;;14.42;64.59
17230;BME280;8731;50.364;8.958;2023-04-08T14:57:14;100732.53;;;14.50;66.09
17230;BME280;8731;50.364;8.958;2023-04-08T15:01:39;100729.97;;;14.60;65.63
17230;BME280;8731;50.364;8.958;2023-04-08T15:06:03;100732.72;;;13.75;67.16
17230;BME280;8731;50.364;8.958;2023-04-08T15:10:26;100733.28;;;13.62;69.30
17230;BME280;8731;50.364;8.958;2023-04-08T15:14:48;100740.53;;;14.05;67.25
17230;BME280;8731;50.364;8.958;2023-04-08T15:19:12;100739.91;;;13.79;66.55
17230;BME280;8731;50.364;8.958;2023-04-08T15:23:36;100743.72;;;13.17;65.26
17230;BME280;8731;50.364;8.958;2023-04-08T15:28:01;100746.38;;;13.28;62.74
17230;BME280;8731;50.364;8.958;2023-04-08T15:32:23;100753.50;;;13.13;63.96
17230;BME280;8731;50.364;8.958;2023-04-08T15:36:48;100751.41;;;13.09;62.60
17230;BME280;8731;50.364;8.958;2023-04-08T15:41:14;100749.06;;;13.29;62.67
17230;BME280;8731;50.364;8.958;2023-04-08T15:45:41;100756.28;;;12.97;60.57
17230;BME280;8731;50.364;8.958;2023-04-08T15:50:06;100762.22;;;12.87;61.83
17230;BME280;8731;50.364;8.958;2023-04-08T15:54:32;100760.69;;;12.89;61.55
17230;BME280;8731;50.364;8.958;2023-04-08T15:58:55;100764.09;;;12.71;60.11
17230;BME280;8731;50.364;8.958;2023-04-08T16:03:17;100768.97;;;12.51;59.71
17230;BME280;8731;50.364;8.958;2023-04-08T16:07:40;100775.34;;;12.28;62.05
17230;BME280;8731;50.364;8.958;2023-04-08T16:12:04;100769.03;;;12.42;60.93
17230;BME280;8731;50.364;8.958;2023-04-08T16:16:26;100772.19;;;12.40;61.48
17230;BME280;8731;50.364;8.958;2023-04-08T16:20:49;100782.78;;;12.08;61.85
17230;BME280;8731;50.364;8.958;2023-04-08T16:25:12;100783.38;;;12.06;61.51
17230;BME280;8731;50.364;8.958;2023-04-08T16:29:38;100779.16;;;12.15;61.57
17230;BME280;8731;50.364;8.958;2023-04-08T16:34:01;100776.59;;;12.06;63.00
17230;BME280;8731;50.364;8.958;2023-04-08T16:38:25;100786.38;;;11.76;62.46
17230;BME280;8731;50.364;8.958;2023-04-08T16:42:48;100792.66;;;11.53;63.38
17230;BME280;8731;50.364;8.958;2023-04-08T16:47:12;100796.28;;;11.47;64.38
17230;BME280;8731;50.364;8.958;2023-04-08T16:51:34;100804.81;;;11.47;64.45
17230;BME280;8731;50.364;8.958;2023-04-08T16:55:57;100810.97;;;11.58;65.19
17230;BME280;8731;50.364;8.958;2023-04-08T17:00:20;100816.78;;;11.31;65.19
17230;BME280;8731;50.364;8.958;2023-04-08T17:04:47;100815.28;;;11.33;65.18
17230;BME280;8731;50.364;8.958;2023-04-08T17:09:10;100824.66;;;10.99;65.95
17230;BME280;8731;50.364;8.958;2023-04-08T17:13:33;100830.56;;;11.16;66.51
17230;BME280;8731;50.364;8.958;2023-04-08T17:17:55;100826.78;;;11.03;66.25
17230;BME280;8731;50.364;8.958;2023-04-08T17:22:20;100840.03;;;10.84;66.04
17230;BME280;8731;50.364;8.958;2023-04-08T17:26:42;100842.72;;;10.85;65.81
17230;BME280;8731;50.364;8.958;2023-04-08T17:31:05;100857.06;;;10.67;67.03
17230;BME280;8731;50.364;8.958;2023-04-08T17:35:28;100856.78;;;10.73;66.97
17230;BME280;8731;50.364;8.958;2023-04-08T17:39:52;100862.06;;;10.83;66.36
17230;BME280;8731;50.364;8.958;2023-04-08T17:44:14;100864.38;;;10.97;65.66
17230;BME280;8731;50.364;8.958;2023-04-08T17:48:37;100867.13;;;10.74;65.84
17230;BME280;8731;50.364;8.958;2023-04-08T17:53:00;100864.44;;;10.82;65.87
17230;BME280;8731;50.364;8.958;2023-04-08T17:57:24;100874.53;;;10.40;67.58
17230;BME280;8731;50.364;8.958;2023-04-08T18:01:47;100878.06;;;10.49;67.85
17230;BME280;8731;50.364;8.958;2023-04-08T18:06:10;100876.84;;;10.45;66.84
17230;BME280;8731;50.364;8.958;2023-04-08T18:10:33;100883.00;;;10.48;66.48
17230;BME280;8731;50.364;8.958;2023-04-08T18:14:58;100890.31;;;10.44;66.53
17230;BME280;8731;50.364;8.958;2023-04-08T18:19:21;100905.88;;;10.23;67.51
17230;BME280;8731;50.364;8.958;2023-04-08T18:23:45;100907.25;;;10.12;66.88
17230;BME280;8731;50.364;8.958;2023-04-08T18:28:09;100909.38;;;9.69;67.92
17230;BME280;8731;50.364;8.958;2023-04-08T18:32:33;100918.75;;;9.77;67.60
17230;BME280;8731;50.364;8.958;2023-04-08T18:36:56;100919.50;;;9.76;67.89
17230;BME280;8731;50.364;8.958;2023-04-08T18:41:19;100929.91;;;9.71;68.47
17230;BME280;8731;50.364;8.958;2023-04-08T18:45:44;100934.91;;;9.62;68.76
17230;BME280;8731;50.364;8.958;2023-04-08T18:50:09;100943.28;;;9.77;69.00
17230;BME280;8731;50.364;8.958;2023-04-08T18:54:31;100934.41;;;9.58;69.26
17230;BME280;8731;50.364;8.958;2023-04-08T18:58:57;100942.84;;;9.49;69.69
17230;BME280;8731;50.364;8.958;2023-04-08T19:03:19;100941.53;;;9.53;69.51
17230;BME280;8731;50.364;8.958;2023-04-08T19:07:43;100943.53;;;9.33;69.83
17230;BME280;8731;50.364;8.958;2023-04-08T19:12:06;100942.88;;;9.27;70.17
17230;BME280;8731;50.364;8.958;2023-04-08T19:16:28;100946.75;;;8.93;71.24
17230;BME280;8731;50.364;8.958;2023-04-08T19:20:51;100944.44;;;9.10;71.16
17230;BME280;8731;50.364;8.958;2023-04-08T19:25:15;100949.53;;;9.10;70.15
17230;BME280;8731;50.364;8.958;2023-04-08T19:29:38;100944.13;;;9.07;70.15
17230;BME280;8731;50.364;8.958;2023-04-08T19:34:00;100956.19;;;8.94;70.85
17230;BME280;8731;50.364;8.958;2023-04-08T19:38:23;100946.16;;;9.03;70.03
17230;BME280;8731;50.364;8.958;2023-04-08T19:42:47;100954.72;;;8.96;70.52
17230;BME280;8731;50.364;8.958;2023-04-08T19:47:09;100954.44;;;8.86;70.24
17230;BME280;8731;50.364;8.958;2023-04-08T19:51:32;100949.88;;;8.60;71.15
17230;BME280;8731;50.364;8.958;2023-04-08T19:55:57;100957.50;;;8.60;71.12
17230;BME280;8731;50.364;8.958;2023-04-08T20:00:22;100960.97;;;8.54;71.61
17230;BME280;8731;50.364;8.958;2023-04-08T20:04:45;100964.88;;;8.29;71.81
17230;BME280;8731;50.364;8.958;2023-04-08T20:09:08;100966.13;;;8.25;71.92
17230;BME280;8731;50.364;8.958;2023-04-08T20:13:30;100979.72;;;8.33;71.74
17230;BME280;8731;50.364;8.958;2023-04-08T20:17:54;100979.72;;;8.40;71.43
17230;BME280;8731;50.364;8.958;2023-04-08T20:22:17;100980.84;;;8.21;71.64
17230;BME280;8731;50.364;8.958;2023-04-08T20:26:39;100983.22;;;8.12;71.97
17230;BME280;8731;50.364;8.958;2023-04-08T20:31:02;100984.16;;;7.98;71.98
17230;BME280;8731;50.364;8.958;2023-04-08T20:35:27;100978.00;;;8.04;72.09
17230;BME280;8731;50.364;8.958;2023-04-08T20:39:50;100980.56;;;7.96;72.15
17230;BME280;8731;50.364;8.958;2023-04-08T20:44:13;100980.97;;;7.85;72.50
17230;BME280;8731;50.364;8.958;2023-04-08T20:48:36;100982.41;;;7.76;73.30
17230;BME280;8731;50.364;8.958;2023-04-08T20:53:01;100979.22;;;7.42;74.89
17230;BME280;8731;50.364;8.958;2023-04-08T20:57:23;100977.75;;;7.44;74.94
17230;BME280;8731;50.364;8.958;2023-04-08T21:01:46;100981.38;;;7.31;75.08
17230;BME280;8731;50.364;8.958;2023-04-08T21:06:14;100986.06;;;7.28;75.38
17230;BME280;8731;50.364;8.958;2023-04-08T21:10:39;100988.03;;;6.95;76.38
17230;BME280;8731;50.364;8.958;2023-04-08T21:15:01;100992.34;;;6.68;77.77
17230;BME280;8731;50.364;8.958;2023-04-08T21:19:24;100997.81;;;6.99;76.24
17230;BME280;8731;50.364;8.958;2023-04-08T21:23:47;100992.53;;;6.76;77.52
17230;BME280;8731;50.364;8.958;2023-04-08T21:28:11;100996.00;;;6.91;76.73
17230;BME280;8731;50.364;8.958;2023-04-08T21:32:33;100986.03;;;6.86;76.63
17230;BME280;8731;50.364;8.958;2023-04-08T21:36:56;100988.19;;;6.75;77.34
17230;BME280;8731;50.364;8.958;2023-04-08T21:41:19;100984.44;;;6.38;77.88
17230;BME280;8731;50.364;8.958;2023-04-08T21:45:43;100986.69;;;6.56;77.58
17230;BME280;8731;50.364;8.958;2023-04-08T21:50:07;100991.84;;;6.36;77.81
17230;BME280;8731;50.364;8.958;2023-04-08T21:54:29;100998.94;;;6.46;77.85
17230;BME280;8731;50.364;8.958;2023-04-08T21:58:52;100998.31;;;6.20;78.64
17230;BME280;8731;50.364;8.958;2023-04-08T22:03:16;100998.97;;;6.12;79.58
17230;BME280;8731;50.364;8.958;2023-04-08T22:07:38;101004.94;;;6.12;79.09
17230;BME280;8731;50.364;8.958;2023-04-08T22:12:03;101004.81;;;5.91;79.50
17230;BME280;8731;50.364;8.958;2023-04-08T22:16:25;100998.72;;;5.96;79.77
17230;BME280;8731;50.364;8.958;2023-04-08T22:20:49;101007.44;;;5.59;81.94
17230;BME280;8731;50.364;8.958;2023-04-08T22:25:12;101005.97;;;5.80;80.96
17230;BME280;8731;50.364;8.958;2023-04-08T22:29:34;100990.44;;;6.04;80.01
17230;BME280;8731;50.364;8.958;2023-04-08T22:33:57;100994.81;;;6.12;79.39
17230;BME280;8731;50.364;8.958;2023-04-08T22:38:21;100996.97;;;6.09;79.77
17230;BME280;8731;50.364;8.958;2023-04-08T22:42:43;100993.34;;;6.07;80.39
17230;BME280;8731;50.364;8.958;2023-04-08T22:47:07;100992.63;;;5.81;81.58
17230;BME280;8731;50.364;8.958;2023-04-08T22:51:30;100986.94;;;5.90;81.93
17230;BME280;8731;50.364;8.958;2023-04-08T22:55:54;100990.09;;;5.81;82.13
17230;BME280;8731;50.364;8.958;2023-04-08T23:00:16;100998.91;;;5.71;83.43
17230;BME280;8731;50.364;8.958;2023-04-08T23:04:40;100997.28;;;5.71;84.11
17230;BME280;8731;50.364;8.958;2023-04-08T23:09:02;100998.03;;;5.50;85.05
17230;BME280;8731;50.364;8.958;2023-04-08T23:13:27;100996.59;;;5.79;84.03
17230;BME280;8731;50.364;8.958;2023-04-08T23:17:49;100993.53;;;5.82;83.84
17230;BME280;8731;50.364;8.958;2023-04-08T23:22:11;100998.06;;;5.84;82.73
17230;BME280;8731;50.364;8.958;2023-04-08T23:26:35;100994.69;;;5.91;82.13
17230;BME280;8731;50.364;8.958;2023-04-08T23:31:02;101007.13;;;5.90;83.08